createdAt,value
2017-10-02T00:00:53.721Z,10.78
2017-10-02T00:01:53.708Z,10.64
2017-10-02T00:02:53.698Z,10.74
2017-10-02T00:03:54.016Z,10.67
2017-10-02T00:04:53.364Z,10.78
2017-10-02T00:05:53.675Z,10.64
2017-10-02T00:06:53.664Z,10.61
2017-10-02T00:07:53.662Z,10.66
2017-10-02T00:08:53.329Z,10.64
2017-10-02T00:09:53.640Z,10.64
2017-10-02T00:10:53.630Z,10.71
2017-10-02T00:11:53.303Z,10.66
2017-10-02T00:12:53.614Z,10.64
2017-10-02T00:13:53.604Z,10.63
2017-10-02T00:14:53.919Z,10.6
2017-10-02T00:15:53.585Z,10.63
2017-10-02T00:16:53.575Z,10.68
2017-10-02T00:17:53.571Z,10.7
2017-10-02T00:18:53.561Z,10.67
2017-10-02T00:19:53.869Z,10.71
2017-10-02T00:20:53.864Z,10.76
2017-10-02T00:21:53.851Z,10.78
2017-10-02T00:22:53.848Z,10.64
2017-10-02T00:23:53.843Z,10.68
2017-10-02T00:24:53.829Z,10.76
2017-10-02T00:25:53.821Z,10.71
2017-10-02T00:26:53.813Z,10.73
2017-10-02T00:27:53.482Z,10.64
2017-10-02T00:28:53.795Z,10.66
2017-10-02T00:29:53.784Z,10.66
2017-10-02T00:30:53.135Z,10.63
2017-10-02T00:31:53.772Z,10.66
2017-10-02T00:32:53.758Z,10.67
2017-10-02T00:33:53.754Z,10.71
2017-10-02T00:34:53.740Z,10.66
2017-10-02T00:35:53.413Z,10.64
2017-10-02T00:36:53.722Z,10.63
2017-10-02T00:37:53.395Z,10.6
2017-10-02T00:38:53.701Z,10.6
2017-10-02T00:39:53.695Z,10.55
2017-10-02T00:40:53.367Z,10.53
2017-10-02T00:41:53.038Z,10.59
2017-10-02T00:42:53.346Z,10.59
2017-10-02T00:43:53.661Z,10.56
2017-10-02T00:44:53.656Z,10.6
2017-10-02T00:45:53.644Z,10.52
2017-10-02T00:46:53.635Z,10.63
2017-10-02T00:47:53.626Z,10.59
2017-10-02T00:48:53.614Z,10.47
2017-10-02T00:49:53.604Z,10.47
2017-10-02T00:50:53.607Z,10.42
2017-10-02T00:51:53.594Z,10.6
2017-10-02T00:52:53.576Z,10.41
2017-10-02T00:53:52.932Z,10.42
2017-10-02T00:54:53.561Z,10.44
2017-10-02T00:55:53.556Z,10.45
2017-10-02T00:56:53.543Z,10.41
2017-10-02T00:57:53.536Z,10.41
2017-10-02T00:58:53.527Z,10.42
2017-10-02T00:59:53.198Z,10.41
2017-10-02T01:00:53.509Z,10.4
2017-10-02T01:01:53.495Z,10.47
2017-10-02T01:02:53.491Z,10.36
2017-10-02T01:03:53.484Z,10.29
2017-10-02T01:04:53.472Z,10.26
2017-10-02T01:05:53.143Z,10.27
2017-10-02T01:06:53.456Z,10.36
2017-10-02T01:07:53.443Z,10.27
2017-10-02T01:08:53.122Z,10.3
2017-10-02T01:09:53.425Z,10.26
2017-10-02T01:10:53.102Z,10.4
2017-10-02T01:11:53.091Z,10.3
2017-10-02T01:12:53.400Z,10.3
2017-10-02T01:13:53.072Z,10.32
2017-10-02T01:14:53.384Z,10.33
2017-10-02T01:15:53.372Z,10.32
2017-10-02T01:16:53.362Z,10.23
2017-10-02T01:17:53.038Z,10.3
2017-10-02T01:18:53.024Z,10.29
2017-10-02T01:19:53.019Z,10.34
2017-10-02T01:20:53.327Z,10.27
2017-10-02T01:21:53.002Z,10.3
2017-10-02T01:22:53.314Z,10.25
2017-10-02T01:23:52.987Z,10.2
2017-10-02T01:24:53.289Z,10.3
2017-10-02T01:25:52.962Z,10.26
2017-10-02T01:26:52.952Z,10.38
2017-10-02T01:27:52.943Z,10.34
2017-10-02T01:28:53.256Z,10.32
2017-10-02T01:29:52.924Z,10.3
2017-10-02T01:30:52.915Z,10.38
2017-10-02T01:31:52.908Z,10.33
2017-10-02T01:32:52.899Z,10.27
2017-10-02T01:33:53.210Z,10.3
2017-10-02T01:34:53.197Z,10.26
2017-10-02T01:35:53.192Z,10.22
2017-10-02T01:36:53.182Z,10.26
2017-10-02T01:37:52.858Z,10.23
2017-10-02T01:38:53.164Z,10.22
2017-10-02T01:39:53.163Z,10.2
2017-10-02T01:40:53.150Z,10.23
2017-10-02T01:41:53.139Z,10.26
2017-10-02T01:42:53.125Z,10.2
2017-10-02T01:43:53.120Z,10.17
2017-10-02T01:44:52.788Z,10.22
2017-10-02T01:45:52.462Z,10.14
2017-10-02T01:46:52.772Z,10.22
2017-10-02T01:47:52.762Z,10.2
2017-10-02T01:48:52.755Z,10.2
2017-10-02T01:49:53.063Z,10.12
2017-10-02T01:50:53.056Z,10.22
2017-10-02T01:51:53.046Z,10.12
2017-10-02T01:52:53.063Z,10.2
2017-10-02T01:53:52.712Z,10.2
2017-10-02T01:54:53.020Z,10.11
2017-10-02T01:55:52.693Z,10.14
2017-10-02T01:56:52.681Z,10.18
2017-10-02T01:57:52.992Z,10.2
2017-10-02T01:58:52.985Z,10.14
2017-10-02T01:59:52.972Z,10.11
2017-10-02T02:00:52.964Z,10.07
2017-10-02T02:01:52.957Z,10.22
2017-10-02T02:02:52.945Z,10.08
2017-10-02T02:03:52.618Z,10.08
2017-10-02T02:04:52.929Z,10.08
2017-10-02T02:05:52.926Z,10.11
2017-10-02T02:06:52.909Z,10.09
2017-10-02T02:07:52.902Z,10.11
2017-10-02T02:08:52.571Z,10.11
2017-10-02T02:09:52.881Z,10.12
2017-10-02T02:10:52.872Z,10.14
2017-10-02T02:11:52.862Z,10.04
2017-10-02T02:12:52.858Z,10.05
2017-10-02T02:13:52.841Z,10.01
2017-10-02T02:14:52.516Z,10.01
2017-10-02T02:15:52.827Z,10.07
2017-10-02T02:16:52.814Z,10.12
2017-10-02T02:17:52.489Z,10.01
2017-10-02T02:18:52.798Z,10.01
2017-10-02T02:19:52.790Z,10.04
2017-10-02T02:20:52.461Z,9.99
2017-10-02T02:21:52.769Z,10.05
2017-10-02T02:22:52.764Z,10.01
2017-10-02T02:23:52.753Z,10.08
2017-10-02T02:24:52.742Z,10.02
2017-10-02T02:25:52.735Z,10.09
2017-10-02T02:26:52.405Z,10.08
2017-10-02T02:27:52.713Z,10.14
2017-10-02T02:28:52.389Z,10.07
2017-10-02T02:29:52.693Z,10.14
2017-10-02T02:30:52.690Z,10.09
2017-10-02T02:31:52.360Z,10.01
2017-10-02T02:32:52.677Z,10.02
2017-10-02T02:33:52.663Z,10.09
2017-10-02T02:34:52.651Z,10.07
2017-10-02T02:35:52.321Z,10.15
2017-10-02T02:36:52.635Z,10.01
2017-10-02T02:37:52.624Z,10.09
2017-10-02T02:38:52.610Z,10.11
2017-10-02T02:39:52.601Z,10.01
2017-10-02T02:40:52.274Z,10.11
2017-10-02T02:41:52.585Z,10.04
2017-10-02T02:42:52.589Z,10.01
2017-10-02T02:43:52.581Z,10.08
2017-10-02T02:44:52.560Z,10.01
2017-10-02T02:45:52.231Z,10.01
2017-10-02T02:46:52.551Z,10.01
2017-10-02T02:47:52.533Z,10.14
2017-10-02T02:48:52.526Z,10.02
2017-10-02T02:49:52.513Z,10.02
2017-10-02T02:50:52.184Z,10.05
2017-10-02T02:51:52.493Z,9.97
2017-10-02T02:52:52.635Z,9.96
2017-10-02T02:53:52.483Z,10.04
2017-10-02T02:54:52.471Z,9.97
2017-10-02T02:55:52.462Z,9.99
2017-10-02T02:56:51.810Z,9.96
2017-10-02T02:57:52.732Z,9.99
2017-10-02T02:58:52.433Z,9.97
2017-10-02T02:59:52.415Z,9.99
2017-10-02T03:00:52.409Z,10.02
2017-10-02T03:01:52.406Z,9.97
2017-10-02T03:02:52.390Z,10.02
2017-10-02T03:03:52.384Z,10.01
2017-10-02T03:04:52.369Z,10.04
2017-10-02T03:05:52.369Z,10.04
2017-10-02T03:06:52.354Z,9.9
2017-10-02T03:07:52.344Z,9.86
2017-10-02T03:08:52.013Z,9.9
2017-10-02T03:09:52.324Z,10.05
2017-10-02T03:10:52.313Z,10.05
2017-10-02T03:11:52.308Z,9.91
2017-10-02T03:12:52.293Z,10.02
2017-10-02T03:13:52.291Z,9.96
2017-10-02T03:14:52.276Z,9.99
2017-10-02T03:15:52.265Z,9.96
2017-10-02T03:16:52.267Z,10.01
2017-10-02T03:17:52.247Z,9.93
2017-10-02T03:18:52.241Z,10.01
2017-10-02T03:19:52.237Z,10.04
2017-10-02T03:20:52.219Z,9.91
2017-10-02T03:21:52.216Z,10.02
2017-10-02T03:22:52.201Z,10.07
2017-10-02T03:23:51.874Z,9.93
2017-10-02T03:24:52.188Z,10.02
2017-10-02T03:25:52.174Z,9.99
2017-10-02T03:26:52.165Z,9.9
2017-10-02T03:27:52.152Z,10.02
2017-10-02T03:28:51.830Z,9.99
2017-10-02T03:29:52.139Z,9.97
2017-10-02T03:30:52.141Z,9.93
2017-10-02T03:31:52.119Z,9.91
2017-10-02T03:32:51.789Z,10.02
2017-10-02T03:33:51.781Z,9.96
2017-10-02T03:34:51.769Z,10.04
2017-10-02T03:35:51.444Z,10.02
2017-10-02T03:36:52.072Z,9.93
2017-10-02T03:37:52.061Z,9.99
2017-10-02T03:38:52.055Z,9.97
2017-10-02T03:39:52.047Z,9.89
2017-10-02T03:40:52.034Z,10.01
2017-10-02T03:41:51.704Z,9.94
2017-10-02T03:42:52.015Z,9.93
2017-10-02T03:43:52.014Z,9.89
2017-10-02T03:44:51.996Z,9.86
2017-10-02T03:45:51.672Z,9.87
2017-10-02T03:46:51.978Z,9.86
2017-10-02T03:47:51.330Z,9.97
2017-10-02T03:48:51.957Z,9.86
2017-10-02T03:49:51.954Z,9.87
2017-10-02T03:50:51.953Z,9.83
2017-10-02T03:51:51.928Z,9.84
2017-10-02T03:52:51.921Z,9.84
2017-10-02T03:53:51.915Z,9.89
2017-10-02T03:54:52.007Z,9.9
2017-10-02T03:55:51.574Z,9.86
2017-10-02T03:56:51.913Z,9.89
2017-10-02T03:57:51.555Z,9.87
2017-10-02T03:58:51.865Z,9.86
2017-10-02T03:59:51.537Z,9.84
2017-10-02T04:00:51.852Z,9.9
2017-10-02T04:01:51.834Z,9.89
2017-10-02T04:02:51.825Z,9.87
2017-10-02T04:03:51.819Z,9.87
2017-10-02T04:04:51.813Z,9.86
2017-10-02T04:05:51.797Z,9.84
2017-10-02T04:06:51.786Z,9.86
2017-10-02T04:07:51.784Z,9.86
2017-10-02T04:08:51.767Z,9.84
2017-10-02T04:09:51.764Z,9.93
2017-10-02T04:10:51.749Z,9.81
2017-10-02T04:11:51.750Z,9.83
2017-10-02T04:12:51.732Z,9.9
2017-10-02T04:13:51.721Z,9.86
2017-10-02T04:14:51.394Z,9.86
2017-10-02T04:15:51.383Z,9.9
2017-10-02T04:16:51.710Z,9.87
2017-10-02T04:17:51.687Z,9.89
2017-10-02T04:18:51.359Z,9.9
2017-10-02T04:19:51.664Z,9.87
2017-10-02T04:20:51.657Z,9.93
2017-10-02T04:21:51.326Z,9.9
2017-10-02T04:22:51.635Z,9.93
2017-10-02T04:23:51.625Z,9.86
2017-10-02T04:24:51.615Z,9.91
2017-10-02T04:25:51.292Z,9.91
2017-10-02T04:26:51.601Z,9.9
2017-10-02T04:27:51.590Z,9.91
2017-10-02T04:28:51.578Z,9.9
2017-10-02T04:29:51.255Z,10.01
2017-10-02T04:30:51.557Z,9.99
2017-10-02T04:31:51.233Z,10.01
2017-10-02T04:32:51.547Z,9.96
2017-10-02T04:33:51.532Z,10.04
2017-10-02T04:34:51.523Z,9.91
2017-10-02T04:35:51.518Z,9.94
2017-10-02T04:36:51.501Z,9.93
2017-10-02T04:37:51.493Z,9.97
2017-10-02T04:38:51.489Z,9.94
2017-10-02T04:39:51.152Z,9.99
2017-10-02T04:40:51.148Z,10.01
2017-10-02T04:41:51.135Z,9.89
2017-10-02T04:42:51.131Z,9.94
2017-10-02T04:43:51.438Z,9.94
2017-10-02T04:44:51.433Z,9.94
2017-10-02T04:45:51.419Z,9.89
2017-10-02T04:46:51.422Z,9.94
2017-10-02T04:47:51.082Z,9.97
2017-10-02T04:48:51.073Z,10.04
2017-10-02T04:49:51.386Z,10.02
2017-10-02T04:50:51.373Z,10.09
2017-10-02T04:51:51.364Z,9.97
2017-10-02T04:52:51.355Z,10.02
2017-10-02T04:53:51.342Z,10.08
2017-10-02T04:54:51.335Z,9.99
2017-10-02T04:55:51.012Z,10.08
2017-10-02T04:56:50.995Z,10.07
2017-10-02T04:57:50.669Z,10.08
2017-10-02T04:58:50.977Z,10.09
2017-10-02T04:59:51.285Z,10.07
2017-10-02T05:00:51.282Z,10.05
2017-10-02T05:01:51.268Z,10.18
2017-10-02T05:02:50.940Z,10.11
2017-10-02T05:03:51.248Z,10.22
2017-10-02T05:04:50.919Z,10.25
2017-10-02T05:05:50.914Z,10.25
2017-10-02T05:06:51.225Z,10.15
2017-10-02T05:07:50.895Z,10.18
2017-10-02T05:08:51.211Z,10.18
2017-10-02T05:09:51.196Z,10.22
2017-10-02T05:10:50.869Z,10.22
2017-10-02T05:11:51.173Z,10.3
2017-10-02T05:12:50.871Z,10.27
2017-10-02T05:13:50.836Z,10.33
2017-10-02T05:14:50.831Z,10.3
2017-10-02T05:15:50.818Z,10.34
2017-10-02T05:16:50.813Z,10.3
2017-10-02T05:17:50.805Z,10.29
2017-10-02T05:18:50.474Z,10.23
2017-10-02T05:19:50.781Z,10.3
2017-10-02T05:20:50.793Z,10.3
2017-10-02T05:21:51.085Z,10.34
2017-10-02T05:22:50.759Z,10.36
2017-10-02T05:23:51.074Z,10.38
2017-10-02T05:24:51.060Z,10.36
2017-10-02T05:25:51.049Z,10.45
2017-10-02T05:26:51.046Z,10.48
2017-10-02T05:27:50.713Z,10.42
2017-10-02T05:28:51.028Z,10.44
2017-10-02T05:29:51.010Z,10.47
2017-10-02T05:30:50.687Z,10.51
2017-10-02T05:31:50.675Z,10.56
2017-10-02T05:32:50.984Z,10.55
2017-10-02T05:33:50.661Z,10.68
2017-10-02T05:34:50.965Z,10.73
2017-10-02T05:35:50.319Z,10.88
2017-10-02T05:36:50.947Z,10.88
2017-10-02T05:37:50.620Z,11.14
2017-10-02T05:38:50.612Z,11.17
2017-10-02T05:39:50.606Z,11.21
2017-10-02T05:40:50.596Z,11.36
2017-10-02T05:41:50.588Z,11.52
2017-10-02T05:42:50.905Z,11.67
2017-10-02T05:43:50.569Z,11.73
2017-10-02T05:44:50.569Z,11.85
2017-10-02T05:45:50.872Z,11.95
2017-10-02T05:46:50.545Z,12.12
2017-10-02T05:47:50.855Z,12.14
2017-10-02T05:48:50.532Z,12.31
2017-10-02T05:49:50.841Z,12.39
2017-10-02T05:50:51.236Z,12.52
2017-10-02T05:51:50.824Z,12.6
2017-10-02T05:52:50.504Z,12.74
2017-10-02T05:53:50.493Z,12.85
2017-10-02T05:54:50.489Z,13.01
2017-10-02T05:55:50.481Z,12.97
2017-10-02T05:56:50.798Z,13.15
2017-10-02T05:57:50.467Z,13.25
2017-10-02T05:58:50.458Z,13.26
2017-10-02T05:59:50.455Z,13.28
2017-10-02T06:00:50.448Z,13.36
2017-10-02T06:01:50.444Z,13.26
2017-10-02T06:02:50.751Z,13.32
2017-10-02T06:03:50.745Z,13.23
2017-10-02T06:04:50.427Z,13.28
2017-10-02T06:05:50.734Z,13.25
2017-10-02T06:06:50.734Z,13.26
2017-10-02T06:07:50.727Z,13.2
2017-10-02T06:08:50.718Z,13.19
2017-10-02T06:09:50.713Z,13.22
2017-10-02T06:10:50.384Z,13.17
2017-10-02T06:11:50.707Z,13.11
2017-10-02T06:12:50.692Z,13.15
2017-10-02T06:13:50.689Z,13.04
2017-10-02T06:14:50.363Z,12.97
2017-10-02T06:15:50.361Z,12.87
2017-10-02T06:16:50.672Z,12.93
2017-10-02T06:17:50.342Z,12.86
2017-10-02T06:18:50.336Z,12.86
2017-10-02T06:19:50.329Z,12.79
2017-10-02T06:20:50.326Z,12.72
2017-10-02T06:21:50.315Z,12.75
2017-10-02T06:22:50.631Z,12.72
2017-10-02T06:23:50.632Z,12.71
2017-10-02T06:24:50.297Z,12.71
2017-10-02T06:25:50.306Z,12.72
2017-10-02T06:26:50.284Z,12.7
2017-10-02T06:27:50.599Z,12.75
2017-10-02T06:28:50.590Z,12.71
2017-10-02T06:29:50.262Z,12.72
2017-10-02T06:30:50.256Z,12.7
2017-10-02T06:31:50.570Z,12.65
2017-10-02T06:32:50.246Z,12.71
2017-10-02T06:33:50.565Z,12.65
2017-10-02T06:34:50.229Z,12.7
2017-10-02T06:35:50.541Z,12.71
2017-10-02T06:36:50.215Z,12.75
2017-10-02T06:37:50.210Z,12.75
2017-10-02T06:38:50.520Z,12.79
2017-10-02T06:39:50.192Z,12.75
2017-10-02T06:40:50.519Z,12.75
2017-10-02T06:41:50.503Z,12.75
2017-10-02T06:42:50.535Z,12.7
2017-10-02T06:43:50.168Z,12.75
2017-10-02T06:44:50.160Z,12.74
2017-10-02T06:45:50.477Z,12.77
2017-10-02T06:46:50.150Z,12.87
2017-10-02T06:47:49.823Z,12.87
2017-10-02T06:48:50.135Z,12.85
2017-10-02T06:49:50.128Z,12.85
2017-10-02T06:50:50.121Z,12.89
2017-10-02T06:51:50.115Z,12.92
2017-10-02T06:52:50.428Z,13.03
2017-10-02T06:53:50.417Z,13.05
2017-10-02T06:54:50.100Z,13.11
2017-10-02T06:55:50.087Z,13.11
2017-10-02T06:56:50.401Z,13.22
2017-10-02T06:57:50.073Z,13.26
2017-10-02T06:58:50.071Z,13.23
2017-10-02T06:59:50.382Z,13.39
2017-10-02T07:00:50.055Z,13.41
2017-10-02T07:01:50.051Z,13.44
2017-10-02T07:02:50.363Z,13.55
2017-10-02T07:03:50.042Z,13.52
2017-10-02T07:04:50.350Z,13.6
2017-10-02T07:05:50.351Z,13.66
2017-10-02T07:06:50.336Z,13.67
2017-10-02T07:07:50.011Z,13.77
2017-10-02T07:08:50.325Z,13.84
2017-10-02T07:09:49.997Z,13.89
2017-10-02T07:10:50.311Z,13.87
2017-10-02T07:11:49.985Z,14.03
2017-10-02T07:12:50.303Z,14.07
2017-10-02T07:13:50.296Z,14.14
2017-10-02T07:14:49.971Z,14.22
2017-10-02T07:15:49.962Z,14.32
2017-10-02T07:16:50.284Z,14.4
2017-10-02T07:17:49.952Z,14.46
2017-10-02T07:18:50.268Z,14.52
2017-10-02T07:19:50.262Z,14.55
2017-10-02T07:20:50.258Z,14.65
2017-10-02T07:21:50.247Z,14.7
2017-10-02T07:22:50.248Z,14.91
2017-10-02T07:23:50.241Z,15.01
2017-10-02T07:24:49.928Z,14.99
2017-10-02T07:25:49.911Z,15.17
2017-10-02T07:26:50.226Z,15.28
2017-10-02T07:27:50.224Z,15.31
2017-10-02T07:28:50.216Z,15.38
2017-10-02T07:29:49.895Z,15.38
2017-10-02T07:30:49.906Z,15.39
2017-10-02T07:31:49.882Z,15.5
2017-10-02T07:32:49.878Z,15.54
2017-10-02T07:33:49.874Z,15.59
2017-10-02T07:34:49.869Z,15.64
2017-10-02T07:35:49.863Z,15.6
2017-10-02T07:36:49.859Z,15.64
2017-10-02T07:37:49.537Z,15.67
2017-10-02T07:38:49.851Z,15.71
2017-10-02T07:39:49.852Z,15.8
2017-10-02T07:40:49.842Z,15.72
2017-10-02T07:41:49.843Z,15.86
2017-10-02T07:42:50.154Z,15.82
2017-10-02T07:43:49.832Z,15.94
2017-10-02T07:44:49.826Z,15.96
2017-10-02T07:45:50.144Z,15.94
2017-10-02T07:46:50.138Z,16.02
2017-10-02T07:47:50.141Z,16.04
2017-10-02T07:48:50.132Z,16.09
2017-10-02T07:49:50.147Z,16.09
2017-10-02T07:50:50.122Z,16.07
2017-10-02T07:51:50.123Z,16.09
2017-10-02T07:52:50.113Z,16.02
2017-10-02T07:53:49.790Z,16.02
2017-10-02T07:54:50.104Z,16.11
2017-10-02T07:55:50.111Z,16.11
2017-10-02T07:56:50.103Z,16.11
2017-10-02T07:57:50.094Z,16.12
2017-10-02T07:58:49.775Z,16.12
2017-10-02T07:59:49.768Z,16.21
2017-10-02T08:00:50.079Z,16.25
2017-10-02T08:01:49.757Z,16.25
2017-10-02T08:02:50.070Z,16.25
2017-10-02T08:03:50.064Z,16.35
2017-10-02T08:04:50.067Z,16.34
2017-10-02T08:05:50.061Z,16.46
2017-10-02T08:06:50.058Z,16.52
2017-10-02T08:07:49.730Z,16.53
2017-10-02T08:08:50.045Z,16.57
2017-10-02T08:09:50.049Z,16.56
2017-10-02T08:10:49.718Z,16.53
2017-10-02T08:11:50.039Z,16.67
2017-10-02T08:12:49.711Z,16.67
2017-10-02T08:13:49.710Z,16.73
2017-10-02T08:14:50.025Z,16.71
2017-10-02T08:15:50.016Z,16.73
2017-10-02T08:16:50.015Z,16.83
2017-10-02T08:17:50.028Z,16.79
2017-10-02T08:18:49.686Z,16.82
2017-10-02T08:19:49.693Z,16.86
2017-10-02T08:20:49.998Z,16.78
2017-10-02T08:21:49.993Z,16.83
2017-10-02T08:22:49.996Z,16.94
2017-10-02T08:23:49.985Z,16.88
2017-10-02T08:24:49.673Z,16.89
2017-10-02T08:25:49.974Z,16.94
2017-10-02T08:26:49.974Z,16.97
2017-10-02T08:27:49.649Z,17.01
2017-10-02T08:28:49.969Z,17.07
2017-10-02T08:29:49.960Z,17.01
2017-10-02T08:30:49.956Z,17.16
2017-10-02T08:31:49.947Z,17.12
2017-10-02T08:32:49.951Z,17.23
2017-10-02T08:33:49.946Z,17.28
2017-10-02T08:34:49.940Z,17.33
2017-10-02T08:35:49.939Z,17.34
2017-10-02T08:36:49.615Z,17.41
2017-10-02T08:37:49.926Z,17.52
2017-10-02T08:38:49.613Z,17.63
2017-10-02T08:39:49.921Z,17.63
2017-10-02T08:40:49.920Z,17.68
2017-10-02T08:41:49.598Z,17.75
2017-10-02T08:42:49.910Z,17.66
2017-10-02T08:43:49.594Z,17.62
2017-10-02T08:44:49.910Z,17.75
2017-10-02T08:45:49.577Z,17.64
2017-10-02T08:46:49.897Z,17.77
2017-10-02T08:47:49.893Z,17.82
2017-10-02T08:48:49.568Z,17.78
2017-10-02T08:49:49.564Z,17.84
2017-10-02T08:50:49.560Z,17.9
2017-10-02T08:51:49.878Z,17.99
2017-10-02T08:52:49.881Z,18.12
2017-10-02T08:53:49.870Z,18.14
2017-10-02T08:54:49.553Z,18.17
2017-10-02T08:55:49.862Z,18.23
2017-10-02T08:56:49.863Z,18.3
2017-10-02T08:57:49.862Z,18.23
2017-10-02T08:58:49.213Z,18.29
2017-10-02T08:59:49.849Z,18.3
2017-10-02T09:00:49.846Z,18.3
2017-10-02T09:01:49.844Z,18.36
2017-10-02T09:02:49.842Z,18.42
2017-10-02T09:03:49.839Z,18.47
2017-10-02T09:04:49.837Z,18.39
2017-10-02T09:05:49.518Z,18.5
2017-10-02T09:06:49.505Z,18.58
2017-10-02T09:07:49.507Z,18.58
2017-10-02T09:08:49.505Z,18.76
2017-10-02T09:09:49.498Z,18.82
2017-10-02T09:10:49.816Z,18.9
2017-10-02T09:11:49.179Z,18.99
2017-10-02T09:12:49.490Z,19.07
2017-10-02T09:13:49.825Z,19.16
2017-10-02T09:14:49.804Z,19.31
2017-10-02T09:15:49.803Z,19.43
2017-10-02T09:16:49.799Z,19.44
2017-10-02T09:17:49.475Z,19.59
2017-10-02T09:18:49.795Z,19.65
2017-10-02T09:19:49.489Z,19.76
2017-10-02T09:20:49.790Z,19.73
2017-10-02T09:21:49.470Z,19.78
2017-10-02T09:22:49.785Z,19.83
2017-10-02T09:23:49.780Z,19.95
2017-10-02T09:24:49.785Z,19.92
2017-10-02T09:25:49.780Z,19.92
2017-10-02T09:26:49.783Z,19.84
2017-10-02T09:27:49.774Z,19.83
2017-10-02T09:28:49.770Z,19.86
2017-10-02T09:29:49.446Z,19.94
2017-10-02T09:30:49.774Z,19.88
2017-10-02T09:31:49.766Z,19.91
2017-10-02T09:32:49.767Z,19.86
2017-10-02T09:33:49.123Z,19.87
2017-10-02T09:34:49.440Z,19.88
2017-10-02T09:35:49.443Z,19.92
2017-10-02T09:36:49.760Z,19.94
2017-10-02T09:37:49.433Z,19.91
2017-10-02T09:38:49.436Z,20.05
2017-10-02T09:39:49.755Z,20.1
2017-10-02T09:40:49.748Z,20.05
2017-10-02T09:41:49.786Z,20.06
2017-10-02T09:42:49.743Z,20.06
2017-10-02T09:43:49.755Z,20.14
2017-10-02T09:44:49.740Z,20.17
2017-10-02T09:45:49.419Z,20.24
2017-10-02T09:46:49.733Z,20.23
2017-10-02T09:47:49.735Z,20.2
2017-10-02T09:48:49.727Z,20.17
2017-10-02T09:49:49.416Z,20.23
2017-10-02T09:50:49.409Z,20.32
2017-10-02T09:51:49.407Z,20.26
2017-10-02T09:52:49.729Z,20.26
2017-10-02T09:53:49.405Z,20.29
2017-10-02T09:54:49.423Z,20.41
2017-10-02T09:55:49.719Z,20.32
2017-10-02T09:56:49.399Z,20.41
2017-10-02T09:57:49.394Z,20.47
2017-10-02T09:58:49.393Z,20.43
2017-10-02T09:59:49.731Z,20.55
2017-10-02T10:00:49.388Z,20.58
2017-10-02T10:01:49.391Z,20.7
2017-10-02T10:02:49.706Z,20.82
2017-10-02T10:03:49.399Z,20.85
2017-10-02T10:04:49.712Z,20.84
2017-10-02T10:05:49.704Z,20.85
2017-10-02T10:06:49.702Z,20.85
2017-10-02T10:07:49.379Z,20.84
2017-10-02T10:08:49.374Z,20.82
2017-10-02T10:09:49.697Z,20.77
2017-10-02T10:10:49.692Z,20.72
2017-10-02T10:11:49.367Z,20.73
2017-10-02T10:12:49.691Z,20.85
2017-10-02T10:13:49.696Z,20.8
2017-10-02T10:14:49.693Z,20.92
2017-10-02T10:15:49.363Z,20.91
2017-10-02T10:16:49.371Z,20.95
2017-10-02T10:17:49.683Z,20.94
2017-10-02T10:18:49.681Z,20.97
2017-10-02T10:19:49.697Z,21.12
2017-10-02T10:20:49.357Z,21.16
2017-10-02T10:21:49.358Z,21.25
2017-10-02T10:22:49.355Z,21.27
2017-10-02T10:23:49.352Z,21.34
2017-10-02T10:24:49.355Z,21.42
2017-10-02T10:25:49.350Z,21.5
2017-10-02T10:26:49.670Z,21.46
2017-10-02T10:27:49.352Z,21.47
2017-10-02T10:28:49.348Z,21.44
2017-10-02T10:29:49.667Z,21.46
2017-10-02T10:30:49.666Z,21.34
2017-10-02T10:31:49.663Z,21.25
2017-10-02T10:32:49.030Z,21.16
2017-10-02T10:33:49.661Z,21.25
2017-10-02T10:34:49.343Z,21.17
2017-10-02T10:35:49.348Z,21.19
2017-10-02T10:36:49.338Z,21.27
2017-10-02T10:37:49.658Z,21.28
2017-10-02T10:38:49.336Z,21.27
2017-10-02T10:39:49.658Z,21.32
2017-10-02T10:40:49.336Z,21.31
2017-10-02T10:41:49.331Z,21.16
2017-10-02T10:42:49.331Z,21.22
2017-10-02T10:43:49.330Z,21.1
2017-10-02T10:44:49.329Z,21.21
2017-10-02T10:45:49.010Z,21.22
2017-10-02T10:46:49.656Z,21.17
2017-10-02T10:47:49.326Z,21.37
2017-10-02T10:48:49.656Z,21.43
2017-10-02T10:49:49.333Z,21.34
2017-10-02T10:50:49.325Z,21.34
2017-10-02T10:51:49.002Z,21.42
2017-10-02T10:52:49.639Z,21.37
2017-10-02T10:53:49.638Z,21.4
2017-10-02T10:54:49.000Z,21.44
2017-10-02T10:55:48.999Z,21.49
2017-10-02T10:56:49.313Z,21.49
2017-10-02T10:57:49.643Z,21.49
2017-10-02T10:58:49.312Z,21.5
2017-10-02T10:59:49.312Z,21.5
2017-10-02T11:00:49.634Z,21.42
2017-10-02T11:01:49.311Z,21.46
2017-10-02T11:02:48.991Z,21.43
2017-10-02T11:03:49.306Z,21.43
2017-10-02T11:04:49.628Z,21.46
2017-10-02T11:05:49.306Z,21.35
2017-10-02T11:06:49.630Z,21.32
2017-10-02T11:07:48.985Z,21.38
2017-10-02T11:08:49.303Z,21.32
2017-10-02T11:09:49.622Z,21.35
2017-10-02T11:10:49.299Z,21.25
2017-10-02T11:11:49.300Z,21.29
2017-10-02T11:12:49.618Z,21.25
2017-10-02T11:13:49.615Z,21.19
2017-10-02T11:14:49.294Z,21.24
2017-10-02T11:15:49.610Z,21.16
2017-10-02T11:16:49.613Z,21.17
2017-10-02T11:17:49.614Z,21.13
2017-10-02T11:18:49.288Z,21.12
2017-10-02T11:19:49.607Z,21.07
2017-10-02T11:20:49.287Z,20.97
2017-10-02T11:21:49.286Z,21.01
2017-10-02T11:22:49.286Z,20.89
2017-10-02T11:23:49.284Z,20.82
2017-10-02T11:24:49.604Z,20.73
2017-10-02T11:25:49.282Z,20.67
2017-10-02T11:26:49.600Z,20.69
2017-10-02T11:27:48.957Z,20.61
2017-10-02T11:28:49.277Z,20.52
2017-10-02T11:29:49.271Z,20.48
2017-10-02T11:30:49.271Z,20.43
2017-10-02T11:31:49.589Z,20.41
2017-10-02T11:32:49.264Z,20.41
2017-10-02T11:33:49.583Z,20.35
2017-10-02T11:34:49.579Z,20.21
2017-10-02T11:35:49.261Z,20.2
2017-10-02T11:36:49.578Z,20.06
2017-10-02T11:37:49.256Z,20.03
2017-10-02T11:38:49.253Z,20.06
2017-10-02T11:39:49.247Z,20.05
2017-10-02T11:40:49.249Z,20.03
2017-10-02T11:41:49.566Z,19.94
2017-10-02T11:42:48.925Z,19.91
2017-10-02T11:43:49.564Z,19.94
2017-10-02T11:44:49.555Z,19.87
2017-10-02T11:45:48.917Z,19.88
2017-10-02T11:46:49.552Z,19.69
2017-10-02T11:47:49.230Z,19.62
2017-10-02T11:48:49.230Z,19.55
2017-10-02T11:49:49.224Z,19.48
2017-10-02T11:50:49.224Z,19.4
2017-10-02T11:51:49.541Z,19.32
2017-10-02T11:52:48.895Z,19.26
2017-10-02T11:53:49.214Z,19.23
2017-10-02T11:54:48.889Z,19.16
2017-10-02T11:55:49.206Z,19.14
2017-10-02T11:56:49.202Z,19.13
2017-10-02T11:57:49.197Z,19
2017-10-02T11:58:49.195Z,18.95
2017-10-02T11:59:49.193Z,18.95
2017-10-02T12:00:49.193Z,18.99
2017-10-02T12:01:49.506Z,18.91
2017-10-02T12:02:49.506Z,18.9
2017-10-02T12:03:49.184Z,18.82
2017-10-02T12:04:49.175Z,18.66
2017-10-02T12:05:49.497Z,18.54
2017-10-02T12:06:49.491Z,18.52
2017-10-02T12:07:49.166Z,18.44
2017-10-02T12:08:49.483Z,18.47
2017-10-02T12:09:49.477Z,18.36
2017-10-02T12:10:49.572Z,18.36
2017-10-02T12:11:49.154Z,18.18
2017-10-02T12:12:49.149Z,18.18
2017-10-02T12:13:49.469Z,18.2
2017-10-02T12:14:49.141Z,18.1
2017-10-02T12:15:49.454Z,18
2017-10-02T12:16:49.135Z,17.96
2017-10-02T12:17:49.450Z,17.92
2017-10-02T12:18:49.451Z,17.84
2017-10-02T12:19:49.128Z,17.95
2017-10-02T12:20:49.118Z,17.78
2017-10-02T12:21:49.435Z,17.71
2017-10-02T12:22:49.434Z,17.66
2017-10-02T12:23:49.426Z,17.62
2017-10-02T12:24:49.425Z,17.49
2017-10-02T12:25:49.417Z,17.54
2017-10-02T12:26:49.413Z,17.43
2017-10-02T12:27:49.559Z,17.26
2017-10-02T12:28:49.406Z,17.31
2017-10-02T12:29:49.083Z,17.16
2017-10-02T12:30:49.078Z,17.08
2017-10-02T12:31:49.071Z,17.06
2017-10-02T12:32:49.073Z,16.97
2017-10-02T12:33:49.383Z,16.83
2017-10-02T12:34:49.059Z,16.82
2017-10-02T12:35:49.375Z,16.76
2017-10-02T12:36:49.372Z,16.7
2017-10-02T12:37:49.373Z,16.63
2017-10-02T12:38:48.722Z,16.52
2017-10-02T12:39:48.721Z,16.56
2017-10-02T12:40:48.715Z,16.52
2017-10-02T12:41:49.032Z,16.5
2017-10-02T12:42:49.343Z,16.43
2017-10-02T12:43:49.021Z,16.33
2017-10-02T12:44:49.014Z,16.35
2017-10-02T12:45:49.335Z,16.28
2017-10-02T12:46:49.006Z,16.33
2017-10-02T12:47:49.319Z,16.24
2017-10-02T12:48:49.316Z,16.25
2017-10-02T12:49:48.994Z,16.21
2017-10-02T12:50:49.019Z,16.2
2017-10-02T12:51:49.298Z,16.12
2017-10-02T12:52:48.972Z,16.11
2017-10-02T12:53:49.290Z,16.14
2017-10-02T12:54:49.282Z,16.11
2017-10-02T12:55:49.279Z,16.07
2017-10-02T12:56:49.274Z,16.07
2017-10-02T12:57:49.265Z,16.12
2017-10-02T12:58:48.965Z,16.15